sensor_id;sensor_type;location;lat;lon;timestamp;P1;durP1;ratioP1;P2;durP2;ratioP2
44925;SDS011;30662;51.210;7.656;2023-02-15T00:01:17;23.83;;;14.82;;
44925;SDS011;30662;51.210;7.656;2023-02-15T00:03:43;23.33;;;13.77;;
44925;SDS011;30662;51.210;7.656;2023-02-15T00:06:09;22.13;;;14.02;;
44925;SDS011;30662;51.210;7.656;2023-02-15T00:08:35;22.60;;;14.48;;
44925;SDS011;30662;51.210;7.656;2023-02-15T00:11:08;21.20;;;13.18;;
44925;SDS011;30662;51.210;7.656;2023-02-15T00:13:36;20.73;;;14.85;;
44925;SDS011;30662;51.210;7.656;2023-02-15T00:16:07;21.83;;;15.15;;
44925;SDS011;30662;51.210;7.656;2023-02-15T00:18:39;20.70;;;13.88;;
44925;SDS011;30662;51.210;7.656;2023-02-15T00:21:06;21.33;;;14.65;;
44925;SDS011;30662;51.210;7.656;2023-02-15T00:23:34;22.50;;;15.02;;
44925;SDS011;30662;51.210;7.656;2023-02-15T00:26:04;22.45;;;14.82;;
44925;SDS011;30662;51.210;7.656;2023-02-15T00:28:31;21.33;;;14.38;;
44925;SDS011;30662;51.210;7.656;2023-02-15T00:31:30;20.48;;;14.35;;
44925;SDS011;30662;51.210;7.656;2023-02-15T00:33:49;21.15;;;14.75;;
44925;SDS011;30662;51.210;7.656;2023-02-15T00:36:15;22.60;;;13.32;;
44925;SDS011;30662;51.210;7.656;2023-02-15T00:38:41;22.50;;;15.10;;
44925;SDS011;30662;51.210;7.656;2023-02-15T00:41:07;20.67;;;14.27;;
44925;SDS011;30662;51.210;7.656;2023-02-15T00:43:34;21.00;;;14.43;;
44925;SDS011;30662;51.210;7.656;2023-02-15T00:46:00;21.13;;;14.98;;
44925;SDS011;30662;51.210;7.656;2023-02-15T00:48:28;22.70;;;15.77;;
44925;SDS011;30662;51.210;7.656;2023-02-15T00:50:55;21.98;;;14.25;;
44925;SDS011;30662;51.210;7.656;2023-02-15T00:53:22;20.27;;;14.50;;
44925;SDS011;30662;51.210;7.656;2023-02-15T00:55:49;19.27;;;13.55;;
44925;SDS011;30662;51.210;7.656;2023-02-15T00:58:15;18.55;;;13.65;;
44925;SDS011;30662;51.210;7.656;2023-02-15T01:00:42;23.08;;;15.30;;
44925;SDS011;30662;51.210;7.656;2023-02-15T01:03:10;19.30;;;13.73;;
44925;SDS011;30662;51.210;7.656;2023-02-15T01:05:37;19.55;;;14.60;;
44925;SDS011;30662;51.210;7.656;2023-02-15T01:08:02;23.75;;;14.15;;
44925;SDS011;30662;51.210;7.656;2023-02-15T01:10:29;22.83;;;14.27;;
44925;SDS011;30662;51.210;7.656;2023-02-15T01:12:55;21.23;;;13.75;;
44925;SDS011;30662;51.210;7.656;2023-02-15T01:15:22;19.83;;;13.70;;
44925;SDS011;30662;51.210;7.656;2023-02-15T01:17:48;20.83;;;14.20;;
44925;SDS011;30662;51.210;7.656;2023-02-15T01:22:44;23.60;;;14.82;;
44925;SDS011;30662;51.210;7.656;2023-02-15T01:25:10;20.23;;;14.52;;
44925;SDS011;30662;51.210;7.656;2023-02-15T01:27:36;23.58;;;15.52;;
44925;SDS011;30662;51.210;7.656;2023-02-15T01:30:02;20.25;;;13.60;;
44925;SDS011;30662;51.210;7.656;2023-02-15T01:32:30;20.08;;;13.95;;
44925;SDS011;30662;51.210;7.656;2023-02-15T01:34:56;19.20;;;13.80;;
44925;SDS011;30662;51.210;7.656;2023-02-15T01:37:22;19.35;;;13.93;;
44925;SDS011;30662;51.210;7.656;2023-02-15T01:39:48;19.67;;;14.15;;
44925;SDS011;30662;51.210;7.656;2023-02-15T01:42:14;21.05;;;14.82;;
44925;SDS011;30662;51.210;7.656;2023-02-15T01:44:54;19.85;;;14.52;;
44925;SDS011;30662;51.210;7.656;2023-02-15T01:47:44;22.02;;;15.10;;
44925;SDS011;30662;51.210;7.656;2023-02-15T01:50:17;21.67;;;14.45;;
44925;SDS011;30662;51.210;7.656;2023-02-15T01:52:51;22.45;;;15.35;;
44925;SDS011;30662;51.210;7.656;2023-02-15T01:55:25;20.83;;;14.48;;
44925;SDS011;30662;51.210;7.656;2023-02-15T01:57:54;23.58;;;15.57;;
44925;SDS011;30662;51.210;7.656;2023-02-15T02:00:20;19.88;;;14.73;;
44925;SDS011;30662;51.210;7.656;2023-02-15T02:02:47;20.83;;;15.45;;
44925;SDS011;30662;51.210;7.656;2023-02-15T02:05:16;21.55;;;15.27;;
44925;SDS011;30662;51.210;7.656;2023-02-15T02:07:43;20.70;;;15.70;;
44925;SDS011;30662;51.210;7.656;2023-02-15T02:10:13;21.75;;;15.43;;
44925;SDS011;30662;51.210;7.656;2023-02-15T02:12:43;24.23;;;15.15;;
44925;SDS011;30662;51.210;7.656;2023-02-15T02:15:11;20.17;;;15.32;;
44925;SDS011;30662;51.210;7.656;2023-02-15T02:17:56;21.88;;;15.60;;
44925;SDS011;30662;51.210;7.656;2023-02-15T02:24:15;23.35;;;16.38;;
44925;SDS011;30662;51.210;7.656;2023-02-15T02:29:15;22.15;;;15.15;;
44925;SDS011;30662;51.210;7.656;2023-02-15T02:35:06;22.17;;;16.40;;
44925;SDS011;30662;51.210;7.656;2023-02-15T02:38:15;21.85;;;15.65;;
44925;SDS011;30662;51.210;7.656;2023-02-15T02:40:52;20.23;;;15.52;;
44925;SDS011;30662;51.210;7.656;2023-02-15T02:43:29;28.17;;;16.30;;
44925;SDS011;30662;51.210;7.656;2023-02-15T02:48:38;23.02;;;16.83;;
44925;SDS011;30662;51.210;7.656;2023-02-15T02:51:04;27.00;;;17.13;;
44925;SDS011;30662;51.210;7.656;2023-02-15T02:53:30;24.58;;;17.00;;
44925;SDS011;30662;51.210;7.656;2023-02-15T02:56:00;22.38;;;15.75;;
44925;SDS011;30662;51.210;7.656;2023-02-15T03:01:13;22.92;;;16.10;;
44925;SDS011;30662;51.210;7.656;2023-02-15T03:06:42;23.58;;;15.50;;
44925;SDS011;30662;51.210;7.656;2023-02-15T03:09:14;23.50;;;16.52;;
44925;SDS011;30662;51.210;7.656;2023-02-15T03:11:48;26.52;;;18.10;;
44925;SDS011;30662;51.210;7.656;2023-02-15T03:14:15;22.38;;;14.77;;
44925;SDS011;30662;51.210;7.656;2023-02-15T03:16:43;23.15;;;16.17;;
44925;SDS011;30662;51.210;7.656;2023-02-15T03:19:14;25.20;;;16.92;;
44925;SDS011;30662;51.210;7.656;2023-02-15T03:21:54;21.10;;;15.90;;
44925;SDS011;30662;51.210;7.656;2023-02-15T03:24:43;23.90;;;16.30;;
44925;SDS011;30662;51.210;7.656;2023-02-15T03:27:15;28.17;;;16.83;;
44925;SDS011;30662;51.210;7.656;2023-02-15T03:29:46;23.92;;;16.63;;
44925;SDS011;30662;51.210;7.656;2023-02-15T03:32:16;23.45;;;16.00;;
44925;SDS011;30662;51.210;7.656;2023-02-15T03:34:43;23.13;;;15.30;;
44925;SDS011;30662;51.210;7.656;2023-02-15T03:37:20;23.67;;;16.88;;
44925;SDS011;30662;51.210;7.656;2023-02-15T03:39:58;26.63;;;16.45;;
44925;SDS011;30662;51.210;7.656;2023-02-15T03:42:48;24.33;;;16.23;;
44925;SDS011;30662;51.210;7.656;2023-02-15T03:45:22;23.38;;;15.68;;
44925;SDS011;30662;51.210;7.656;2023-02-15T03:47:51;22.67;;;15.18;;
44925;SDS011;30662;51.210;7.656;2023-02-15T03:50:26;23.83;;;16.08;;
44925;SDS011;30662;51.210;7.656;2023-02-15T03:53:14;23.70;;;17.33;;
44925;SDS011;30662;51.210;7.656;2023-02-15T03:55:45;21.75;;;15.55;;
44925;SDS011;30662;51.210;7.656;2023-02-15T03:58:12;28.58;;;17.30;;
44925;SDS011;30662;51.210;7.656;2023-02-15T04:01:01;23.52;;;15.95;;
44925;SDS011;30662;51.210;7.656;2023-02-15T04:03:54;25.08;;;16.90;;
44925;SDS011;30662;51.210;7.656;2023-02-15T04:08:50;25.55;;;16.20;;
44925;SDS011;30662;51.210;7.656;2023-02-15T04:11:35;28.55;;;16.23;;
44925;SDS011;30662;51.210;7.656;2023-02-15T04:14:00;24.50;;;16.13;;
44925;SDS011;30662;51.210;7.656;2023-02-15T04:16:46;24.70;;;17.45;;
44925;SDS011;30662;51.210;7.656;2023-02-15T04:19:12;25.67;;;16.67;;
44925;SDS011;30662;51.210;7.656;2023-02-15T04:21:57;25.13;;;17.13;;
44925;SDS011;30662;51.210;7.656;2023-02-15T04:24:41;24.05;;;17.00;;
44925;SDS011;30662;51.210;7.656;2023-02-15T04:27:25;27.60;;;17.38;;
44925;SDS011;30662;51.210;7.656;2023-02-15T04:29:51;27.20;;;17.50;;
44925;SDS011;30662;51.210;7.656;2023-02-15T04:32:17;23.50;;;16.20;;
44925;SDS011;30662;51.210;7.656;2023-02-15T04:34:43;28.02;;;16.55;;
44925;SDS011;30662;51.210;7.656;2023-02-15T04:37:09;25.30;;;17.25;;
44925;SDS011;30662;51.210;7.656;2023-02-15T04:39:35;27.95;;;16.70;;
44925;SDS011;30662;51.210;7.656;2023-02-15T04:42:01;24.67;;;15.68;;
44925;SDS011;30662;51.210;7.656;2023-02-15T04:44:27;27.23;;;17.50;;
44925;SDS011;30662;51.210;7.656;2023-02-15T04:46:53;23.88;;;16.10;;
44925;SDS011;30662;51.210;7.656;2023-02-15T04:49:20;26.10;;;16.85;;
44925;SDS011;30662;51.210;7.656;2023-02-15T04:51:46;29.83;;;17.58;;
44925;SDS011;30662;51.210;7.656;2023-02-15T04:54:11;21.73;;;15.80;;
44925;SDS011;30662;51.210;7.656;2023-02-15T04:56:37;24.83;;;17.42;;
44925;SDS011;30662;51.210;7.656;2023-02-15T04:59:04;31.55;;;17.10;;
44925;SDS011;30662;51.210;7.656;2023-02-15T05:01:30;25.25;;;16.83;;
44925;SDS011;30662;51.210;7.656;2023-02-15T05:03:56;30.73;;;17.88;;
44925;SDS011;30662;51.210;7.656;2023-02-15T05:06:22;28.45;;;17.10;;
44925;SDS011;30662;51.210;7.656;2023-02-15T05:08:48;27.92;;;17.63;;
44925;SDS011;30662;51.210;7.656;2023-02-15T05:11:14;26.15;;;17.23;;
44925;SDS011;30662;51.210;7.656;2023-02-15T05:13:40;27.25;;;17.38;;
44925;SDS011;30662;51.210;7.656;2023-02-15T05:16:06;28.52;;;16.35;;
44925;SDS011;30662;51.210;7.656;2023-02-15T05:18:32;23.27;;;16.33;;
44925;SDS011;30662;51.210;7.656;2023-02-15T05:20:58;28.75;;;17.52;;
44925;SDS011;30662;51.210;7.656;2023-02-15T05:23:24;26.08;;;16.88;;
44925;SDS011;30662;51.210;7.656;2023-02-15T05:25:50;26.30;;;16.08;;
44925;SDS011;30662;51.210;7.656;2023-02-15T05:28:36;29.80;;;16.52;;
44925;SDS011;30662;51.210;7.656;2023-02-15T05:33:29;27.10;;;16.80;;
44925;SDS011;30662;51.210;7.656;2023-02-15T05:35:55;23.55;;;16.52;;
44925;SDS011;30662;51.210;7.656;2023-02-15T05:38:21;25.17;;;16.27;;
44925;SDS011;30662;51.210;7.656;2023-02-15T05:40:46;24.25;;;15.70;;
44925;SDS011;30662;51.210;7.656;2023-02-15T05:43:15;27.33;;;17.20;;
44925;SDS011;30662;51.210;7.656;2023-02-15T05:45:44;26.65;;;16.08;;
44925;SDS011;30662;51.210;7.656;2023-02-15T05:48:11;30.20;;;16.25;;
44925;SDS011;30662;51.210;7.656;2023-02-15T05:50:37;24.40;;;15.73;;
44925;SDS011;30662;51.210;7.656;2023-02-15T05:53:03;25.17;;;15.65;;
44925;SDS011;30662;51.210;7.656;2023-02-15T05:55:28;25.50;;;15.57;;
44925;SDS011;30662;51.210;7.656;2023-02-15T05:57:54;29.65;;;16.08;;
44925;SDS011;30662;51.210;7.656;2023-02-15T06:00:20;23.08;;;15.35;;
44925;SDS011;30662;51.210;7.656;2023-02-15T06:02:46;25.58;;;16.05;;
44925;SDS011;30662;51.210;7.656;2023-02-15T06:05:12;24.42;;;15.63;;
44925;SDS011;30662;51.210;7.656;2023-02-15T06:07:38;26.98;;;14.90;;
44925;SDS011;30662;51.210;7.656;2023-02-15T06:10:04;24.20;;;14.75;;
44925;SDS011;30662;51.210;7.656;2023-02-15T06:12:32;27.10;;;16.15;;
44925;SDS011;30662;51.210;7.656;2023-02-15T06:14:59;27.30;;;16.00;;
44925;SDS011;30662;51.210;7.656;2023-02-15T06:17:24;27.83;;;15.23;;
44925;SDS011;30662;51.210;7.656;2023-02-15T06:19:50;21.92;;;14.80;;
44925;SDS011;30662;51.210;7.656;2023-02-15T06:22:16;26.33;;;15.50;;
44925;SDS011;30662;51.210;7.656;2023-02-15T06:24:42;24.30;;;15.77;;
44925;SDS011;30662;51.210;7.656;2023-02-15T06:27:09;24.05;;;15.35;;
44925;SDS011;30662;51.210;7.656;2023-02-15T06:29:35;26.88;;;15.55;;
44925;SDS011;30662;51.210;7.656;2023-02-15T06:32:01;23.15;;;14.68;;
44925;SDS011;30662;51.210;7.656;2023-02-15T06:34:27;25.13;;;15.40;;
44925;SDS011;30662;51.210;7.656;2023-02-15T06:36:53;29.45;;;16.38;;
44925;SDS011;30662;51.210;7.656;2023-02-15T06:39:19;27.40;;;16.40;;
44925;SDS011;30662;51.210;7.656;2023-02-15T06:41:45;26.90;;;15.88;;
44925;SDS011;30662;51.210;7.656;2023-02-15T06:44:11;28.17;;;15.75;;
44925;SDS011;30662;51.210;7.656;2023-02-15T06:46:37;24.30;;;15.65;;
44925;SDS011;30662;51.210;7.656;2023-02-15T06:49:03;27.30;;;16.25;;
44925;SDS011;30662;51.210;7.656;2023-02-15T06:51:28;22.67;;;15.43;;
44925;SDS011;30662;51.210;7.656;2023-02-15T06:53:54;23.48;;;15.13;;
44925;SDS011;30662;51.210;7.656;2023-02-15T06:56:20;27.60;;;16.65;;
44925;SDS011;30662;51.210;7.656;2023-02-15T06:58:46;25.17;;;15.68;;
44925;SDS011;30662;51.210;7.656;2023-02-15T07:01:14;26.33;;;16.40;;
44925;SDS011;30662;51.210;7.656;2023-02-15T07:03:40;22.95;;;14.85;;
44925;SDS011;30662;51.210;7.656;2023-02-15T07:06:06;27.00;;;16.20;;
44925;SDS011;30662;51.210;7.656;2023-02-15T07:08:35;28.75;;;16.58;;
44925;SDS011;30662;51.210;7.656;2023-02-15T07:11:01;26.27;;;15.57;;
44925;SDS011;30662;51.210;7.656;2023-02-15T07:13:46;26.90;;;16.83;;
44925;SDS011;30662;51.210;7.656;2023-02-15T07:16:12;23.92;;;15.02;;
44925;SDS011;30662;51.210;7.656;2023-02-15T07:18:39;26.50;;;15.00;;
44925;SDS011;30662;51.210;7.656;2023-02-15T07:21:06;24.73;;;15.77;;
44925;SDS011;30662;51.210;7.656;2023-02-15T07:23:35;27.55;;;17.55;;
44925;SDS011;30662;51.210;7.656;2023-02-15T07:26:05;28.63;;;16.67;;
44925;SDS011;30662;51.210;7.656;2023-02-15T07:28:32;27.83;;;15.82;;
44925;SDS011;30662;51.210;7.656;2023-02-15T07:31:03;25.90;;;15.40;;
44925;SDS011;30662;51.210;7.656;2023-02-15T07:33:30;27.05;;;16.83;;
44925;SDS011;30662;51.210;7.656;2023-02-15T07:35:58;29.95;;;16.10;;
44925;SDS011;30662;51.210;7.656;2023-02-15T07:38:27;30.98;;;16.80;;
44925;SDS011;30662;51.210;7.656;2023-02-15T07:41:02;23.80;;;14.13;;
44925;SDS011;30662;51.210;7.656;2023-02-15T07:43:38;24.60;;;14.82;;
44925;SDS011;30662;51.210;7.656;2023-02-15T07:46:08;23.92;;;14.68;;
44925;SDS011;30662;51.210;7.656;2023-02-15T07:48:37;22.65;;;13.07;;
44925;SDS011;30662;51.210;7.656;2023-02-15T07:51:05;23.10;;;13.40;;
44925;SDS011;30662;51.210;7.656;2023-02-15T07:53:33;23.25;;;13.27;;
44925;SDS011;30662;51.210;7.656;2023-02-15T07:56:00;22.13;;;13.52;;
44925;SDS011;30662;51.210;7.656;2023-02-15T07:58:27;22.58;;;13.68;;
44925;SDS011;30662;51.210;7.656;2023-02-15T08:01:12;20.50;;;12.52;;
44925;SDS011;30662;51.210;7.656;2023-02-15T08:03:42;20.63;;;12.70;;
44925;SDS011;30662;51.210;7.656;2023-02-15T08:06:16;28.92;;;17.40;;
44925;SDS011;30662;51.210;7.656;2023-02-15T08:08:47;23.27;;;12.77;;
44925;SDS011;30662;51.210;7.656;2023-02-15T08:11:23;23.13;;;12.98;;
44925;SDS011;30662;51.210;7.656;2023-02-15T08:16:28;21.55;;;13.60;;
44925;SDS011;30662;51.210;7.656;2023-02-15T08:19:00;22.52;;;13.02;;
44925;SDS011;30662;51.210;7.656;2023-02-15T08:21:34;20.38;;;12.48;;
44925;SDS011;30662;51.210;7.656;2023-02-15T08:24:01;20.20;;;12.18;;
44925;SDS011;30662;51.210;7.656;2023-02-15T08:26:29;21.35;;;12.20;;
44925;SDS011;30662;51.210;7.656;2023-02-15T08:28:55;20.83;;;12.23;;
44925;SDS011;30662;51.210;7.656;2023-02-15T08:31:22;18.80;;;11.88;;
44925;SDS011;30662;51.210;7.656;2023-02-15T08:33:49;19.90;;;11.80;;
44925;SDS011;30662;51.210;7.656;2023-02-15T08:36:17;21.52;;;12.23;;
44925;SDS011;30662;51.210;7.656;2023-02-15T08:38:44;22.50;;;12.55;;
44925;SDS011;30662;51.210;7.656;2023-02-15T08:43:40;18.63;;;11.27;;
44925;SDS011;30662;51.210;7.656;2023-02-15T08:46:06;18.13;;;11.40;;
44925;SDS011;30662;51.210;7.656;2023-02-15T08:48:33;19.85;;;11.68;;
44925;SDS011;30662;51.210;7.656;2023-02-15T08:51:03;20.48;;;11.32;;
44925;SDS011;30662;51.210;7.656;2023-02-15T08:53:33;18.60;;;10.35;;
44925;SDS011;30662;51.210;7.656;2023-02-15T08:55:59;21.17;;;11.20;;
44925;SDS011;30662;51.210;7.656;2023-02-15T08:58:25;17.98;;;10.00;;
44925;SDS011;30662;51.210;7.656;2023-02-15T09:00:51;17.38;;;10.23;;
44925;SDS011;30662;51.210;7.656;2023-02-15T09:03:17;22.92;;;11.30;;
44925;SDS011;30662;51.210;7.656;2023-02-15T09:05:43;16.23;;;9.85;;
44925;SDS011;30662;51.210;7.656;2023-02-15T09:08:09;18.80;;;9.90;;
44925;SDS011;30662;51.210;7.656;2023-02-15T09:10:35;16.67;;;9.43;;
44925;SDS011;30662;51.210;7.656;2023-02-15T09:13:01;21.02;;;10.43;;
44925;SDS011;30662;51.210;7.656;2023-02-15T09:15:27;16.30;;;9.15;;
44925;SDS011;30662;51.210;7.656;2023-02-15T09:17:52;21.25;;;10.30;;
44925;SDS011;30662;51.210;7.656;2023-02-15T09:20:18;16.80;;;9.70;;
44925;SDS011;30662;51.210;7.656;2023-02-15T09:22:44;16.95;;;9.32;;
44925;SDS011;30662;51.210;7.656;2023-02-15T09:25:10;15.15;;;9.02;;
44925;SDS011;30662;51.210;7.656;2023-02-15T16:31:12;16.10;;;9.80;;
44925;SDS011;30662;51.210;7.656;2023-02-15T16:33:41;15.32;;;9.90;;
44925;SDS011;30662;51.210;7.656;2023-02-15T16:36:21;16.35;;;10.02;;
44925;SDS011;30662;51.210;7.656;2023-02-15T16:41:17;14.57;;;9.90;;
44925;SDS011;30662;51.210;7.656;2023-02-15T16:43:50;18.63;;;11.13;;
44925;SDS011;30662;51.210;7.656;2023-02-15T16:46:25;17.27;;;10.40;;
44925;SDS011;30662;51.210;7.656;2023-02-15T16:48:55;15.18;;;10.55;;
44925;SDS011;30662;51.210;7.656;2023-02-15T16:51:24;16.85;;;10.73;;
44925;SDS011;30662;51.210;7.656;2023-02-15T16:53:57;16.33;;;10.48;;
44925;SDS011;30662;51.210;7.656;2023-02-15T16:56:30;20.13;;;11.23;;
44925;SDS011;30662;51.210;7.656;2023-02-15T16:58:57;16.42;;;10.90;;
44925;SDS011;30662;51.210;7.656;2023-02-15T17:01:26;18.42;;;10.98;;
44925;SDS011;30662;51.210;7.656;2023-02-15T17:04:11;18.40;;;11.65;;
44925;SDS011;30662;51.210;7.656;2023-02-15T17:06:39;17.48;;;11.20;;
44925;SDS011;30662;51.210;7.656;2023-02-15T17:09:06;16.75;;;11.27;;
44925;SDS011;30662;51.210;7.656;2023-02-15T17:11:44;16.38;;;11.18;;
44925;SDS011;30662;51.210;7.656;2023-02-15T17:14:11;18.80;;;11.30;;
44925;SDS011;30662;51.210;7.656;2023-02-15T17:19:16;18.80;;;11.75;;
44925;SDS011;30662;51.210;7.656;2023-02-15T17:21:48;17.65;;;11.10;;
44925;SDS011;30662;51.210;7.656;2023-02-15T17:24:42;17.83;;;10.73;;
44925;SDS011;30662;51.210;7.656;2023-02-15T17:27:12;17.60;;;12.38;;
44925;SDS011;30662;51.210;7.656;2023-02-15T17:29:46;18.52;;;11.48;;
44925;SDS011;30662;51.210;7.656;2023-02-15T17:32:21;22.35;;;12.00;;
44925;SDS011;30662;51.210;7.656;2023-02-15T17:42:35;21.67;;;13.63;;
44925;SDS011;30662;51.210;7.656;2023-02-15T17:45:01;18.02;;;11.80;;
44925;SDS011;30662;51.210;7.656;2023-02-15T17:47:27;17.42;;;12.40;;
44925;SDS011;30662;51.210;7.656;2023-02-15T17:49:54;19.30;;;12.65;;
44925;SDS011;30662;51.210;7.656;2023-02-15T17:52:20;20.08;;;12.60;;
44925;SDS011;30662;51.210;7.656;2023-02-15T17:54:46;19.88;;;12.05;;
44925;SDS011;30662;51.210;7.656;2023-02-15T17:57:32;19.48;;;12.85;;
44925;SDS011;30662;51.210;7.656;2023-02-15T17:59:58;18.70;;;12.18;;
44925;SDS011;30662;51.210;7.656;2023-02-15T18:02:42;18.63;;;12.43;;
44925;SDS011;30662;51.210;7.656;2023-02-15T18:05:27;21.27;;;13.13;;
44925;SDS011;30662;51.210;7.656;2023-02-15T18:08:15;23.65;;;13.75;;
44925;SDS011;30662;51.210;7.656;2023-02-15T18:11:02;18.55;;;12.25;;
44925;SDS011;30662;51.210;7.656;2023-02-15T18:13:46;19.35;;;12.40;;
44925;SDS011;30662;51.210;7.656;2023-02-15T18:16:14;19.90;;;12.55;;
44925;SDS011;30662;51.210;7.656;2023-02-15T18:18:48;19.63;;;13.27;;
44925;SDS011;30662;51.210;7.656;2023-02-15T18:21:14;19.25;;;12.77;;
44925;SDS011;30662;51.210;7.656;2023-02-15T18:23:41;18.35;;;12.32;;
44925;SDS011;30662;51.210;7.656;2023-02-15T18:26:11;18.65;;;12.40;;
44925;SDS011;30662;51.210;7.656;2023-02-15T18:28:43;19.10;;;13.13;;
44925;SDS011;30662;51.210;7.656;2023-02-15T18:31:09;18.35;;;13.05;;
44925;SDS011;30662;51.210;7.656;2023-02-15T18:33:38;21.13;;;12.48;;
44925;SDS011;30662;51.210;7.656;2023-02-15T18:36:22;17.45;;;12.82;;
44925;SDS011;30662;51.210;7.656;2023-02-15T18:38:53;18.75;;;13.23;;
44925;SDS011;30662;51.210;7.656;2023-02-15T18:41:20;22.77;;;13.88;;
44925;SDS011;30662;51.210;7.656;2023-02-15T18:43:48;21.40;;;13.55;;
44925;SDS011;30662;51.210;7.656;2023-02-15T18:46:15;19.45;;;12.00;;
44925;SDS011;30662;51.210;7.656;2023-02-15T18:48:42;18.98;;;13.45;;
44925;SDS011;30662;51.210;7.656;2023-02-15T18:51:13;23.95;;;13.02;;
44925;SDS011;30662;51.210;7.656;2023-02-15T18:53:43;22.38;;;13.57;;
44925;SDS011;30662;51.210;7.656;2023-02-15T18:56:13;22.08;;;13.68;;
44925;SDS011;30662;51.210;7.656;2023-02-15T18:58:41;19.67;;;13.55;;
44925;SDS011;30662;51.210;7.656;2023-02-15T19:01:12;20.60;;;13.60;;
44925;SDS011;30662;51.210;7.656;2023-02-15T19:03:44;21.42;;;14.23;;
44925;SDS011;30662;51.210;7.656;2023-02-15T19:06:13;17.58;;;13.45;;
44925;SDS011;30662;51.210;7.656;2023-02-15T19:08:46;21.85;;;14.35;;
44925;SDS011;30662;51.210;7.656;2023-02-15T19:11:15;25.98;;;14.13;;
44925;SDS011;30662;51.210;7.656;2023-02-15T19:13:44;18.77;;;13.55;;
44925;SDS011;30662;51.210;7.656;2023-02-15T19:16:34;19.05;;;13.15;;
44925;SDS011;30662;51.210;7.656;2023-02-15T19:19:00;22.52;;;13.75;;
44925;SDS011;30662;51.210;7.656;2023-02-15T19:21:27;18.15;;;13.18;;
44925;SDS011;30662;51.210;7.656;2023-02-15T19:24:03;22.92;;;13.82;;
44925;SDS011;30662;51.210;7.656;2023-02-15T19:26:32;21.08;;;13.35;;
44925;SDS011;30662;51.210;7.656;2023-02-15T19:29:12;24.52;;;14.48;;
44925;SDS011;30662;51.210;7.656;2023-02-15T19:31:40;18.95;;;13.60;;
44925;SDS011;30662;51.210;7.656;2023-02-15T19:34:12;20.13;;;13.90;;
44925;SDS011;30662;51.210;7.656;2023-02-15T19:36:40;20.00;;;14.15;;
44925;SDS011;30662;51.210;7.656;2023-02-15T19:39:14;21.67;;;14.52;;
44925;SDS011;30662;51.210;7.656;2023-02-15T19:41:57;20.48;;;14.00;;
44925;SDS011;30662;51.210;7.656;2023-02-15T19:44:24;20.58;;;13.13;;
44925;SDS011;30662;51.210;7.656;2023-02-15T19:46:50;20.40;;;13.55;;
44925;SDS011;30662;51.210;7.656;2023-02-15T19:49:16;19.83;;;12.98;;
44925;SDS011;30662;51.210;7.656;2023-02-15T19:51:42;18.70;;;12.95;;
44925;SDS011;30662;51.210;7.656;2023-02-15T19:54:31;23.48;;;15.07;;
44925;SDS011;30662;51.210;7.656;2023-02-15T19:56:59;20.95;;;14.45;;
44925;SDS011;30662;51.210;7.656;2023-02-15T19:59:26;20.88;;;14.63;;
44925;SDS011;30662;51.210;7.656;2023-02-15T20:01:57;21.90;;;14.32;;
44925;SDS011;30662;51.210;7.656;2023-02-15T20:04:24;21.35;;;14.48;;
44925;SDS011;30662;51.210;7.656;2023-02-15T20:06:51;20.85;;;15.40;;
44925;SDS011;30662;51.210;7.656;2023-02-15T20:09:21;24.88;;;15.88;;
44925;SDS011;30662;51.210;7.656;2023-02-15T20:11:53;20.35;;;13.27;;
44925;SDS011;30662;51.210;7.656;2023-02-15T20:14:20;22.05;;;14.63;;
44925;SDS011;30662;51.210;7.656;2023-02-15T20:16:47;22.90;;;14.98;;
44925;SDS011;30662;51.210;7.656;2023-02-15T20:19:13;21.73;;;13.80;;
44925;SDS011;30662;51.210;7.656;2023-02-15T20:21:40;25.73;;;15.52;;
44925;SDS011;30662;51.210;7.656;2023-02-15T20:24:15;22.38;;;15.27;;
44925;SDS011;30662;51.210;7.656;2023-02-15T20:26:43;24.08;;;15.38;;
44925;SDS011;30662;51.210;7.656;2023-02-15T20:29:13;24.42;;;14.65;;
44925;SDS011;30662;51.210;7.656;2023-02-15T20:31:40;25.40;;;16.50;;
44925;SDS011;30662;51.210;7.656;2023-02-15T20:34:07;22.63;;;15.88;;
44925;SDS011;30662;51.210;7.656;2023-02-15T20:36:33;21.63;;;15.90;;
44925;SDS011;30662;51.210;7.656;2023-02-15T20:39:01;21.33;;;15.35;;
44925;SDS011;30662;51.210;7.656;2023-02-15T20:41:30;23.77;;;15.68;;
44925;SDS011;30662;51.210;7.656;2023-02-15T20:44:23;24.73;;;16.13;;
44925;SDS011;30662;51.210;7.656;2023-02-15T20:46:55;26.63;;;14.93;;
44925;SDS011;30662;51.210;7.656;2023-02-15T20:49:22;25.98;;;16.95;;
44925;SDS011;30662;51.210;7.656;2023-02-15T20:51:50;24.23;;;15.65;;
44925;SDS011;30662;51.210;7.656;2023-02-15T20:54:19;25.42;;;16.48;;
44925;SDS011;30662;51.210;7.656;2023-02-15T20:56:50;23.15;;;16.98;;
44925;SDS011;30662;51.210;7.656;2023-02-15T21:01:57;25.85;;;16.73;;
44925;SDS011;30662;51.210;7.656;2023-02-15T21:04:30;24.70;;;16.73;;
44925;SDS011;30662;51.210;7.656;2023-02-15T21:06:58;28.55;;;17.70;;
44925;SDS011;30662;51.210;7.656;2023-02-15T21:09:25;27.17;;;17.05;;
44925;SDS011;30662;51.210;7.656;2023-02-15T21:11:51;24.70;;;16.88;;
44925;SDS011;30662;51.210;7.656;2023-02-15T21:14:21;25.67;;;16.17;;
44925;SDS011;30662;51.210;7.656;2023-02-15T21:16:49;25.55;;;16.67;;
44925;SDS011;30662;51.210;7.656;2023-02-15T21:19:16;24.90;;;16.52;;
44925;SDS011;30662;51.210;7.656;2023-02-15T21:21:43;24.08;;;17.52;;
44925;SDS011;30662;51.210;7.656;2023-02-15T21:24:18;24.52;;;17.60;;
44925;SDS011;30662;51.210;7.656;2023-02-15T21:26:48;28.10;;;17.25;;
44925;SDS011;30662;51.210;7.656;2023-02-15T21:29:15;25.67;;;17.13;;
44925;SDS011;30662;51.210;7.656;2023-02-15T21:31:46;28.15;;;18.02;;
44925;SDS011;30662;51.210;7.656;2023-02-15T21:34:13;24.70;;;17.15;;
44925;SDS011;30662;51.210;7.656;2023-02-15T21:36:40;22.17;;;16.25;;
44925;SDS011;30662;51.210;7.656;2023-02-15T21:39:26;25.48;;;17.60;;
44925;SDS011;30662;51.210;7.656;2023-02-15T21:41:53;27.92;;;17.60;;
44925;SDS011;30662;51.210;7.656;2023-02-15T21:44:39;29.17;;;19.38;;
44925;SDS011;30662;51.210;7.656;2023-02-15T21:47:25;27.80;;;17.70;;
44925;SDS011;30662;51.210;7.656;2023-02-15T21:50:12;28.25;;;17.80;;
44925;SDS011;30662;51.210;7.656;2023-02-15T21:53:42;24.75;;;17.33;;
44925;SDS011;30662;51.210;7.656;2023-02-15T21:56:16;25.00;;;16.55;;
44925;SDS011;30662;51.210;7.656;2023-02-15T21:58:46;25.83;;;17.77;;
44925;SDS011;30662;51.210;7.656;2023-02-15T22:01:22;27.67;;;18.50;;
44925;SDS011;30662;51.210;7.656;2023-02-15T22:03:51;26.98;;;18.98;;
44925;SDS011;30662;51.210;7.656;2023-02-15T22:06:19;25.80;;;16.83;;
44925;SDS011;30662;51.210;7.656;2023-02-15T22:08:45;26.40;;;18.80;;
44925;SDS011;30662;51.210;7.656;2023-02-15T22:11:18;29.98;;;19.88;;
44925;SDS011;30662;51.210;7.656;2023-02-15T22:13:49;25.38;;;17.23;;
44925;SDS011;30662;51.210;7.656;2023-02-15T22:16:16;30.88;;;18.85;;
44925;SDS011;30662;51.210;7.656;2023-02-15T22:18:44;25.75;;;17.58;;
44925;SDS011;30662;51.210;7.656;2023-02-15T22:21:11;26.55;;;19.05;;
44925;SDS011;30662;51.210;7.656;2023-02-15T22:23:37;28.25;;;20.05;;
44925;SDS011;30662;51.210;7.656;2023-02-15T22:26:05;26.90;;;18.17;;
44925;SDS011;30662;51.210;7.656;2023-02-15T22:28:34;25.40;;;18.48;;